Aviation Digital Data Service (ADDS)

Output produced by METARs form (0141 UTC 20 February 2018)
found at http://www.aviationweather.gov/adds/metars/
 
METAR text: KPIT 200051Z 19006KT 10SM FEW160 BKN250 17/12 A3012 RMK AO2 SLP207 T01720122
Conditions at: KPIT (PITTSBURGH , PA, US) observed 0051 UTC 20 February 2018
Temperature: 17.2°C (63°F)
Dewpoint: 12.2°C (54°F) [RH = 72%]
Pressure (altimeter): 30.12 inches Hg (1020.1 mb)
[Sea-level pressure: 1020.7 mb]
Winds: from the S (190 degrees) at 7 MPH (6 knots; 3.1 m/s)
Visibility: 10 or more miles (16+ km)
Ceiling: 25000 feet AGL
Clouds: few clouds at 16000 feet AGL
broken clouds at 25000 feet AGL
Weather: no significant weather observed at this time

METAR text: K2G4 200115Z AUTO 20007KT 10SM CLR 13/10 A3025 RMK AO1
Conditions at: K2G4 (GARRETT CO , MD, US) observed 0115 UTC 20 February 2018
Temperature: 13.0°C (55°F)
Dewpoint: 10.0°C (50°F) [RH = 82%]
Pressure (altimeter): 30.25 inches Hg (1024.5 mb)
Winds: from the SSW (200 degrees) at 8 MPH (7 knots; 3.6 m/s)
Visibility: 10 or more miles (16+ km)
Ceiling: at least 12,000 feet AGL
Clouds: sky clear below 12,000 feet AGL
Weather: automated observation with no human augmentation;
there may or may not be significant weather present at this time

METAR text: KAFJ 200056Z AUTO 19006KT 10SM CLR 18/12 A3017 RMK AO2 SLP215 T01780122
Conditions at: KAFJ (WASHINGTON , PA, US) observed 0056 UTC 20 February 2018
Temperature: 17.8°C (64°F)
Dewpoint: 12.2°C (54°F) [RH = 70%]
Pressure (altimeter): 30.17 inches Hg (1021.8 mb)
[Sea-level pressure: 1021.5 mb]
Winds: from the S (190 degrees) at 7 MPH (6 knots; 3.1 m/s)
Visibility: 10 or more miles (16+ km)
Ceiling: at least 12,000 feet AGL
Clouds: sky clear below 12,000 feet AGL
Weather: automated observation with no human augmentation;
there may or may not be significant weather present at this time

METAR text: KAGC 200053Z 18008KT 10SM BKN065 17/11 A3014 RMK AO2 SLP212 T01720111
Conditions at: KAGC (PITTSBURGH/ALLEG, PA, US) observed 0053 UTC 20 February 2018
Temperature: 17.2°C (63°F)
Dewpoint: 11.1°C (52°F) [RH = 67%]
Pressure (altimeter): 30.14 inches Hg (1020.7 mb)
[Sea-level pressure: 1021.2 mb]
Winds: from the S (180 degrees) at 9 MPH (8 knots; 4.2 m/s)
Visibility: 10 or more miles (16+ km)
Ceiling: 6500 feet AGL
Clouds: broken clouds at 6500 feet AGL
Weather: no significant weather observed at this time

METAR text: KBTP 200056Z AUTO 17003KT 10SM CLR 14/12 A3013 RMK AO2 SLP211 T01390122
Conditions at: KBTP (BUTLER CO. , PA, US) observed 0056 UTC 20 February 2018
Temperature: 13.9°C (57°F)
Dewpoint: 12.2°C (54°F) [RH = 89%]
Pressure (altimeter): 30.13 inches Hg (1020.4 mb)
[Sea-level pressure: 1021.1 mb]
Winds: from the S (170 degrees) at 3 MPH (3 knots; 1.6 m/s)
Visibility: 10 or more miles (16+ km)
Ceiling: at least 12,000 feet AGL
Clouds: sky clear below 12,000 feet AGL
Weather: automated observation with no human augmentation;
there may or may not be significant weather present at this time

METAR text: KBVI 200047Z 17005KT 10SM CLR 14/12 A3012
Conditions at: KBVI (BEAVER FALLS ARP, PA, US) observed 0047 UTC 20 February 2018
Temperature: 14.0°C (57°F)
Dewpoint: 12.0°C (54°F) [RH = 88%]
Pressure (altimeter): 30.12 inches Hg (1020.1 mb)
Winds: from the S (170 degrees) at 6 MPH (5 knots; 2.6 m/s)
Visibility: 10 or more miles (16+ km)
Ceiling: at least 12,000 feet AGL
Clouds: sky clear below 12,000 feet AGL
Weather: no significant weather observed at this time

METAR text: KDUJ 200053Z AUTO 12006KT 4SM BR BKN041 OVC047 07/06 A3015 RMK AO2 SLP219 T00720061
Conditions at: KDUJ (DU BOIS , PA, US) observed 0053 UTC 20 February 2018
Temperature: 7.2°C (45°F)
Dewpoint: 6.1°C (43°F) [RH = 93%]
Pressure (altimeter): 30.15 inches Hg (1021.1 mb)
[Sea-level pressure: 1021.9 mb]
Winds: from the ESE (120 degrees) at 7 MPH (6 knots; 3.1 m/s)
Visibility: 4 miles (6 km)
Ceiling: 4100 feet AGL
Clouds: broken clouds at 4100 feet AGL
overcast cloud deck at 4700 feet AGL
Weather: BR  (mist)

METAR text: KFKL 200056Z AUTO 18010KT 10SM BKN070 OVC100 11/11 A3011 RMK AO2 SLP204 T01110106
Conditions at: KFKL (FRANKLIN , PA, US) observed 0056 UTC 20 February 2018
Temperature: 11.1°C (52°F)
Dewpoint: 10.6°C (51°F) [RH = 97%]
Pressure (altimeter): 30.11 inches Hg (1019.7 mb)
[Sea-level pressure: 1020.4 mb]
Winds: from the S (180 degrees) at 12 MPH (10 knots; 5.2 m/s)
Visibility: 10 or more miles (16+ km)
Ceiling: 7000 feet AGL
Clouds: broken clouds at 7000 feet AGL
overcast cloud deck at 10000 feet AGL
Weather: automated observation with no human augmentation;
there may or may not be significant weather present at this time

METAR text: KHLG 200053Z 19011KT 10SM BKN060 18/12 A3013 RMK AO2 SLP204 T01830122
Conditions at: KHLG (WHEELING , WV, US) observed 0053 UTC 20 February 2018
Temperature: 18.3°C (65°F)
Dewpoint: 12.2°C (54°F) [RH = 68%]
Pressure (altimeter): 30.13 inches Hg (1020.4 mb)
[Sea-level pressure: 1020.4 mb]
Winds: from the S (190 degrees) at 13 MPH (11 knots; 5.7 m/s)
Visibility: 10 or more miles (16+ km)
Ceiling: 6000 feet AGL
Clouds: broken clouds at 6000 feet AGL
Weather: no significant weather observed at this time

METAR text: KIDI 200135Z AUTO 13004KT 10SM FEW055 12/11 A3019 RMK A01
Conditions at: KIDI (INDIANA/STEWART , PA, US) observed 0135 UTC 20 February 2018
Temperature: 12.0°C (54°F)
Dewpoint: 11.0°C (52°F) [RH = 94%]
Pressure (altimeter): 30.19 inches Hg (1022.4 mb)
Winds: from the SE (130 degrees) at 5 MPH (4 knots; 2.1 m/s)
Visibility: 10 or more miles (16+ km)
Ceiling: at least 12,000 feet AGL
Clouds: few clouds at 5500 feet AGL
Weather: automated observation with no human augmentation;
there may or may not be significant weather present at this time

METAR text: KLBE 200050Z 20007KT 10SM SCT075 18/13 A3016
Conditions at: KLBE (LATROBE/WESTMORL, PA, US) observed 0050 UTC 20 February 2018
Temperature: 18.0°C (64°F)
Dewpoint: 13.0°C (55°F) [RH = 73%]
Pressure (altimeter): 30.16 inches Hg (1021.4 mb)
Winds: from the SSW (200 degrees) at 8 MPH (7 knots; 3.6 m/s)
Visibility: 10 or more miles (16+ km)
Ceiling: at least 12,000 feet AGL
Clouds: scattered clouds at 7500 feet AGL
Weather: no significant weather observed at this time

METAR text: KMGW 200053Z 18007KT 10SM FEW070 19/11 A3019 RMK AO2 SLP219 T01890111
Conditions at: KMGW (MORGANTOWN , WV, US) observed 0053 UTC 20 February 2018
Temperature: 18.9°C (66°F)
Dewpoint: 11.1°C (52°F) [RH = 61%]
Pressure (altimeter): 30.19 inches Hg (1022.4 mb)
[Sea-level pressure: 1021.9 mb]
Winds: from the S (180 degrees) at 8 MPH (7 knots; 3.6 m/s)
Visibility: 10 or more miles (16+ km)
Ceiling: at least 12,000 feet AGL
Clouds: few clouds at 7000 feet AGL
Weather: no significant weather observed at this time

METAR text: KPHD 200053Z AUTO 17006KT 10SM CLR 18/13 A3010 RMK AO2 SLP193 T01780128
Conditions at: KPHD (NEW PHILADELPHIA, OH, US) observed 0053 UTC 20 February 2018
Temperature: 17.8°C (64°F)
Dewpoint: 12.8°C (55°F) [RH = 73%]
Pressure (altimeter): 30.10 inches Hg (1019.4 mb)
[Sea-level pressure: 1019.3 mb]
Winds: from the S (170 degrees) at 7 MPH (6 knots; 3.1 m/s)
Visibility: 10 or more miles (16+ km)
Ceiling: at least 12,000 feet AGL
Clouds: sky clear below 12,000 feet AGL
Weather: automated observation with no human augmentation;
there may or may not be significant weather present at this time

METAR text: KUCP 200056Z AUTO VRB04KT 10SM FEW090 BKN110 14/14 A3010 RMK AO2 SLP210 T01440139
Conditions at: KUCP (NEW CASTLE MUNI , PA, US) observed 0056 UTC 20 February 2018
Temperature: 14.4°C (58°F)
Dewpoint: 13.9°C (57°F) [RH = 97%]
Pressure (altimeter): 30.10 inches Hg (1019.4 mb)
[Sea-level pressure: 1021.0 mb]
Winds: variable direction winds at 5 MPH (4 knots; 2.1 m/s)
Visibility: 10 or more miles (16+ km)
Ceiling: 11000 feet AGL
Clouds: few clouds at 9000 feet AGL
broken clouds at 11000 feet AGL
Weather: automated observation with no human augmentation;
there may or may not be significant weather present at this time

METAR text: KZZV 200053Z AUTO 18008KT 10SM CLR 18/12 A3010 RMK AO2 SLP193 T01780122
Conditions at: KZZV (ZANESVILLE , OH, US) observed 0053 UTC 20 February 2018
Temperature: 17.8°C (64°F)
Dewpoint: 12.2°C (54°F) [RH = 70%]
Pressure (altimeter): 30.10 inches Hg (1019.4 mb)
[Sea-level pressure: 1019.3 mb]
Winds: from the S (180 degrees) at 9 MPH (8 knots; 4.2 m/s)
Visibility: 10 or more miles (16+ km)
Ceiling: at least 12,000 feet AGL
Clouds: sky clear below 12,000 feet AGL
Weather: automated observation with no human augmentation;
there may or may not be significant weather present at this time